Latest Coastal Weather Observations for Yarram Airport

IDV60701

Issued at 2:41 pm EDT Tuesday 23 December 2014 (issued every 10 minutes, with the page automatically refreshed every 10 minutes)

About coastal observations | Map of coastal stations | Coastal observations for VIC | Marine services | Other Formats
Station Details ID: 085151 Name: YARRAM AIRPORT Lat: -38.56 Lon: 146.75 Height: 17.9 m
Data from the previous 72 hours. | See also: Recent months at Yarram Airport
Date/Time
EDT
Temp

°C
Wind Pressure Rain
since 9am
mm
Weather Cloud Vis
km
Sea
Height
m
Swell
Dir
 
Speed
knots
Gust
knots
hPa Trend Height
m
Period
s
Dir
23/02:30pm 24.9 SW 17 22 1007.1 - 0.2 - - - - - - -
23/02:00pm 25.5 SW 18 24 1007.0 - 0.2 - - - - - - -
23/01:30pm 23.9 SW 20 25 1007.0 - 0.2 - - - - - - -
23/01:00pm 26.5 WSW 18 25 1006.9 - 0.2 - - - - - - -
23/12:30pm 24.6 W 16 23 1006.9 - 0.2 - - - - - - -
23/12:00pm 26.4 W 12 17 1006.7 - 0.2 Recent precip. - - - - - -
23/11:30am 28.4 WNW 11 17 1006.6 - 0.2 - - - - - - -
23/11:00am 25.8 WNW 18 24 1006.8 - 0.0 - - - - - - -
23/10:30am 25.5 NW 12 17 1006.7 - 0.0 - - - - - - -
23/10:00am 25.0 N 9 13 1006.8 - 0.0 - - - - - - -
23/09:30am 23.4 N 4 6 1007.1 - 0.0 - - - - - - -
23/09:00am 21.4 CALM 0 0 1007.4 - 2.0 - - - - - - -
23/08:30am 19.8 WNW 1 4 1007.4 - - - - - - - - -
23/08:00am 19.6 NNE 5 7 1007.3 - - - - - - - - -
23/07:30am 18.9 N 4 5 1007.2 - - - - - - - - -
23/07:00am 18.8 CALM 0 0 1007.0 - - - - - - - - -
23/06:30am 18.5 ENE 4 5 1007.2 - - - - - - - - -
23/06:00am 18.4 CALM 0 0 1007.0 - - - - - - - - -
23/05:30am 18.3 WNW 3 4 1006.9 - - - - - - - - -
23/05:00am 18.3 WNW 1 3 1006.6 - - - - - - - - -
23/04:30am 18.4 WNW 5 6 1006.5 - - - - - - - - -
23/04:00am 18.5 NNW 2 5 1006.4 - - - - - - - - -
23/03:30am 18.3 N 2 5 1006.7 - - - - - - - - -
23/03:00am 18.5 SSE 6 10 1007.4 - 0.8 Rain - - - - - -
23/02:30am 18.3 SSE 4 6 1007.1 - - - - - - - - -
23/02:00am 18.2 S 8 10 1007.0 - - - - - - - - -
23/01:30am 18.1 SE 2 5 1006.6 - - - - - - - - -
23/01:00am 18.0 CALM 0 0 1006.8 - - - - - - - - -
23/12:30am 18.0 CALM 0 0 1007.0 - - - - - - - - -
23/12:00am 18.1 W 4 6 1007.3 - - - - - - - - -
 
Date/Time
EDT
Temp

°C
Wind Pressure Rain
since 9am
mm
Weather Cloud Vis
km
Sea
Height
m
Swell
Dir
 
Speed
knots
Gust
knots
hPa Trend Height
m
Period
s
Dir
22/11:30pm 18.0 N 4 5 1007.5 - - - - - - - - -
22/11:00pm 18.2 ENE 4 5 1007.2 - - - - - - - - -
22/10:30pm 18.2 E 4 6 1007.7 - - - - - - - - -
22/10:00pm 18.4 ENE 6 8 1008.3 - - - - - - - - -
22/09:30pm 18.4 NNE 3 6 1008.4 - - - - - - - - -
22/09:00pm 18.6 CALM 0 3 1008.5 - 0.0 - - - - - - -
22/08:30pm 18.6 E 5 6 1008.9 - - - - - - - - -
22/08:00pm 18.8 CALM 0 0 1009.4 - - - - - - - - -
22/07:30pm 18.7 ENE 4 6 1009.5 - - - - - - - - -
22/07:00pm 18.8 ESE 5 8 1010.0 - - - - - - - - -
22/06:30pm 18.9 ESE 3 7 1009.8 - - - - - - - - -
22/06:00pm 19.0 SE 4 7 1010.2 - - - - - - - - -
22/05:30pm 19.1 SE 6 8 1010.2 - - - - - - - - -
22/05:00pm 19.3 ESE 7 10 1010.4 - - - - - - - - -
22/04:30pm 19.6 SE 7 9 1010.6 - - - - - - - - -
22/04:00pm 19.5 ESE 7 11 1010.9 - - - - - - - - -
22/03:30pm 20.4 SE 9 11 1011.1 - - - - - - - - -
22/03:00pm 21.4 SE 9 11 1011.5 - 0.0 - - - - - - -
22/02:30pm 21.5 SE 7 12 1012.0 - - - - - - - - -
22/02:00pm 21.2 SE 8 11 1012.3 - 0.0 - - - - - - -
22/01:33pm 21.6 WSW 26 41 1012.5 - 0.0 - - - - - - -
22/01:30pm 21.3 N 16 41 1012.5 - 0.0 - - - - - - -
22/01:28pm 21.9 N 17 41 1012.5 - 0.0 - - - - - - -
22/01:00pm 22.2 SE 12 15 1012.6 - 0.0 - - - - - - -
22/12:30pm 22.9 SE 11 15 1012.9 - 0.0 - - - - - - -
22/12:00pm 24.1 SE 10 13 1013.1 - 0.0 - - - - - - -
22/11:30am 23.3 SE 9 11 1013.4 - 0.0 - - - - - - -
22/11:00am 23.4 SE 9 13 1013.6 - 0.0 - - - - - - -
22/10:30am 23.1 ESE 6 9 1013.5 - 0.0 - - - - - - -
22/10:00am 22.4 SSE 6 11 1013.5 - 0.0 - - - - - - -
22/09:30am 21.0 SSW 5 7 1013.7 - 0.0 - - - - - - -
22/09:00am 20.5 S 4 9 1014.0 - 0.0 - - - - - - -
22/08:30am 19.6 S 4 7 1014.1 - 0.0 - - - - - - -
22/08:00am 18.4 S 4 5 1014.0 - 0.0 - - - - - - -
22/07:30am 18.0 CALM 0 3 1013.9 - 0.0 - - - - - - -
22/07:00am 17.8 CALM 0 0 1013.4 - 0.0 - - - - - - -
22/06:30am 17.4 CALM 0 0 1013.1 - 0.0 - - - - - - -
22/06:00am 17.2 CALM 0 0 1013.0 - 0.0 - - - - - - -
22/05:30am 17.3 CALM 0 0 1012.9 - 0.0 - - - - - - -
22/05:00am 17.2 CALM 0 0 1012.7 - 0.0 - - - - - - -
22/04:30am 16.9 WNW 4 4 1012.8 - 0.0 - - - - - - -
22/04:00am 16.9 W 4 5 1012.7 - 0.0 - - - - - - -
22/03:30am 16.8 WNW 5 6 1012.9 - 0.0 - - - - - - -
22/03:00am 16.2 WNW 5 6 1013.0 - 0.0 - - - - - - -
22/02:30am 16.1 WNW 4 5 1013.2 - 0.0 - - - - - - -
22/02:00am 17.0 WSW 4 5 1013.3 - 0.0 - - - - - - -
22/01:30am 17.3 WSW 5 7 1013.4 - 0.0 - - - - - - -
22/01:00am 17.2 WNW 5 6 1013.7 - 0.0 - - - - - - -
22/12:30am 17.8 W 7 7 1013.7 - 0.0 - - - - - - -
22/12:00am 17.2 WSW 2 4 1013.5 - 0.0 - - - - - - -
 
Date/Time
EDT
Temp

°C
Wind Pressure Rain
since 9am
mm
Weather Cloud Vis
km
Sea
Height
m
Swell
Dir
 
Speed
knots
Gust
knots
hPa Trend Height
m
Period
s
Dir
21/11:30pm 17.3 CALM 0 0 1013.5 - 0.0 - - - - - - -
21/11:00pm 17.4 NNE 6 7 1013.5 - 0.0 - - - - - - -
21/10:30pm 17.0 N 5 6 1013.7 - 0.0 - - - - - - -
21/10:00pm 17.5 NE 5 6 1013.6 - 0.0 - - - - - - -
21/09:30pm 19.0 E 6 7 1013.4 - 0.0 - - - - - - -
21/09:00pm 19.9 E 6 7 1013.0 - 0.0 - - - - - - -
21/08:30pm 21.7 E 5 7 1012.7 - 0.0 - - - - - - -
21/08:00pm 22.9 E 6 7 1012.4 - 0.0 - - - - - - -
21/07:30pm 23.7 ENE 7 9 1012.3 - 0.0 - - - - - - -
21/07:00pm 24.5 ENE 8 11 1012.0 - 0.0 - - - - - - -
21/06:30pm 24.1 E 9 12 1012.1 - 0.0 - - - - - - -
21/06:00pm 24.6 E 9 12 1012.2 - 0.0 - - - - - - -
21/05:30pm 24.6 E 9 13 1012.4 - 0.0 - - - - - - -
21/05:00pm 24.4 E 9 13 1012.7 - 0.0 - - - - - - -
21/04:30pm 24.4 E 11 15 1013.0 - 0.0 - - - - - - -
21/04:00pm 24.2 E 11 15 1013.3 - 0.0 - - - - - - -
21/03:30pm 24.0 E 11 15 1013.4 - 0.0 - - - - - - -
21/03:00pm 25.1 ESE 13 16 1013.4 - 0.0 - - - - - - -
21/02:30pm 25.3 E 11 17 1013.5 - 0.0 - - - - - - -
21/02:00pm 25.4 E 11 16 1013.9 - 0.0 - - - - - - -
21/01:30pm 24.8 E 12 17 1014.0 - 0.0 - - - - - - -
21/01:00pm 24.8 E 13 18 1014.2 - 0.0 - - - - - - -
21/12:30pm 24.8 E 11 17 1014.3 - 0.0 - - - - - - -
21/12:00pm 24.5 E 11 18 1014.4 - 0.0 - - - - - - -
21/11:30am 24.1 ENE 8 12 1014.6 - 0.0 - - - - - - -
21/11:00am 23.0 NE 8 13 1014.8 - 0.0 - - - - - - -
21/10:30am 21.9 NE 9 12 1015.0 - 0.0 - - - - - - -
21/10:00am 20.9 NE 9 12 1015.4 - 0.0 - - - - - - -
21/09:30am 20.0 NE 9 13 1015.5 - 0.0 - - - - - - -
21/09:00am 18.9 NE 10 13 1015.4 - 0.0 - - - - - - -
21/08:30am 17.7 NE 9 13 1015.7 - 0.0 - - - - - - -
21/08:00am 15.8 NNE 7 11 1016.1 - 0.0 - - - - - - -
21/07:30am 14.7 NE 4 6 1016.5 - 0.0 - - - - - - -
21/07:00am 13.4 NE 4 5 1016.3 - 0.0 - - - - - - -
21/06:30am 10.8 NE 2 4 1016.1 - 0.0 - - - - - - -
21/06:00am 9.7 NNE 5 7 1015.5 - 0.0 - - - - - - -
21/05:30am 9.1 ENE 6 7 1015.2 - 0.0 - - - - - - -
21/05:00am 7.6 NE 4 5 1015.1 - 0.0 - - - - - - -
21/04:30am 8.0 NNE 4 7 1015.0 - 0.0 - - - - - - -
21/04:00am 8.1 N 3 4 1015.3 - 0.0 - - - - - - -
21/03:30am 7.9 N 3 4 1015.5 - 0.0 - - - - - - -
21/03:00am 8.8 N 3 4 1015.7 - 0.0 - - - - - - -
21/02:30am 9.3 N 4 5 1016.1 - 0.0 - - - - - - -
21/02:00am 9.1 NNW 3 4 1016.5 - 0.0 - - - - - - -
21/01:30am 9.5 WNW 5 6 1016.7 - 0.0 - - - - - - -
21/01:00am 10.3 NW 3 4 1017.0 - 0.0 - - - - - - -
21/12:30am 10.7 NW 4 5 1017.2 - 0.0 - - - - - - -
21/12:00am 11.1 NW 5 6 1017.4 - 0.0 - - - - - - -
 
Date/Time
EDT
Temp

°C
Wind Pressure Rain
since 9am
mm
Weather Cloud Vis
km
Sea
Height
m
Swell
Dir
 
Speed
knots
Gust
knots
hPa Trend Height
m
Period
s
Dir
20/11:30pm 12.1 W 5 6 1017.4 - 0.0 - - - - - - -
20/11:00pm 10.6 NW 5 6 1017.5 - 0.0 - - - - - - -
20/10:30pm 12.4 CALM 0 2 1017.8 - 0.0 - - - - - - -
20/10:00pm 13.1 WSW 4 5 1017.7 - 0.0 - - - - - - -
20/09:30pm 13.6 WSW 4 5 1017.7 - 0.0 - - - - - - -
20/09:00pm 14.6 SW 7 9 1017.5 - 0.0 - - - - - - -
20/08:30pm 16.0 SW 8 11 1017.3 - 0.0 - - - - - - -
20/08:00pm 17.6 SW 10 14 1016.9 - 0.0 - - - - - - -
20/07:30pm 18.5 SW 12 15 1016.6 - 0.0 - - - - - - -
20/07:00pm 18.9 SW 16 21 1016.4 - 0.0 - - - - - - -
20/06:30pm 19.2 SW 17 21 1016.2 - 0.0 - - - - - - -
20/06:00pm 20.0 SW 15 21 1016.0 - 0.0 - - - - - - -
20/05:30pm 20.5 SW 17 24 1016.1 - 0.0 - - - - - - -
20/05:00pm 21.5 SW 18 25 1016.2 - 0.0 - - - - - - -
20/04:30pm 21.4 WSW 17 24 1016.3 - 0.0 - - - - - - -
20/04:00pm 21.2 WSW 16 23 1016.5 - 0.0 - - - - - - -
20/03:30pm 21.5 SW 15 23 1016.8 - 0.0 - - - - - - -
20/03:00pm 21.5 WSW 15 21 1017.0 - 0.0 - - - - - - -

Other Formats:

Comma delimited format used in spreadsheet applications
http://www.bom.gov.au/fwo/IDV60701/IDV60701.95890.axf

JavaScript Object Notation format (JSON) in row-major order
http://www.bom.gov.au/fwo/IDV60701/IDV60701.95890.json